^^

Weather Underground History

Daily Summary for February 8, 2018 Units:  Metric    English   Both
Daily Weekly Monthly Yearly
  High: Low: Average:
Temperature: 21 °C 11 °C 16.1 °C
Dew Point: 12 °C 9 °C 10.7 °C
Humidity: 88% 49% 71%
Wind Speed: 17km/h 0km/h 5.4km/h
Wind Gust: 29km/h - -
Wind- - West
Pressure: 1012.0 hPa 1005.5 hPa -
Precipitation: 0.0 mm    
 
 
Tabular Data for February 8, 2018
Time Temperature Dew Point Pressure Wind Wind Speed Wind Gust Humidity Rainfall Rate (Hourly) solar
00:04 15 °C 11 °C 1005.5 hPa NW 3 km/h 8 km/h 74% 0.0 mm 0 W/m2
00:09 15 °C 11 °C 1005.6 hPa NW 3 km/h 6 km/h 74% 0.0 mm 0 W/m2
00:14 15 °C 11 °C 1005.6 hPa NW 5 km/h 8 km/h 74% 0.0 mm 0 W/m2
00:19 15 °C 11 °C 1005.7 hPa NW 4 km/h 8 km/h 73% 0.0 mm 0 W/m2
00:24 15 °C 10 °C 1005.7 hPa NW 4 km/h 8 km/h 73% 0.0 mm 0 W/m2
00:29 15 °C 10 °C 1005.7 hPa NW 2 km/h 8 km/h 73% 0.0 mm 0 W/m2
00:34 15 °C 10 °C 1005.6 hPa NW 5 km/h 11 km/h 73% 0.0 mm 0 W/m2
00:39 15 °C 10 °C 1005.5 hPa NW 5 km/h 11 km/h 73% 0.0 mm 0 W/m2
00:44 15 °C 10 °C 1005.5 hPa NW 5 km/h 11 km/h 73% 0.0 mm 0 W/m2
00:49 15 °C 10 °C 1005.5 hPa WNW 6 km/h 13 km/h 73% 0.0 mm 0 W/m2
00:54 15 °C 10 °C 1005.6 hPa WNW 3 km/h 6 km/h 73% 0.0 mm 0 W/m2
00:59 15 °C 10 °C 1005.7 hPa WNW 2 km/h 6 km/h 73% 0.0 mm 0 W/m2
01:04 15 °C 10 °C 1005.7 hPa WNW 3 km/h 6 km/h 73% 0.0 mm 0 W/m2
01:09 15 °C 10 °C 1005.7 hPa WNW 4 km/h 10 km/h 73% 0.0 mm 0 W/m2
01:14 15 °C 10 °C 1005.7 hPa NW 4 km/h 10 km/h 73% 0.0 mm 0 W/m2
01:19 15 °C 10 °C 1005.7 hPa NW 3 km/h 8 km/h 73% 0.0 mm 0 W/m2
01:24 15 °C 10 °C 1005.7 hPa NW 4 km/h 6 km/h 73% 0.0 mm 0 W/m2
01:29 14 °C 10 °C 1005.7 hPa NW 2 km/h 8 km/h 73% 0.0 mm 0 W/m2
01:34 14 °C 10 °C 1005.8 hPa NW 1 km/h 3 km/h 73% 0.0 mm 0 W/m2
01:39 14 °C 10 °C 1005.9 hPa Calm   5 km/h 73% 0.0 mm 0 W/m2
01:44 14 °C 10 °C 1005.9 hPa NW 3 km/h 5 km/h 73% 0.0 mm 0 W/m2
01:49 14 °C 10 °C 1005.8 hPa NW 4 km/h 6 km/h 73% 0.0 mm 0 W/m2
01:54 14 °C 10 °C 1005.8 hPa NW 3 km/h 8 km/h 72% 0.0 mm 0 W/m2
01:59 14 °C 9 °C 1005.7 hPa NW 3 km/h 10 km/h 72% 0.0 mm 0 W/m2
02:04 14 °C 9 °C 1005.7 hPa NW 4 km/h 8 km/h 72% 0.0 mm 0 W/m2
02:09 14 °C 9 °C 1005.7 hPa WNW 3 km/h 8 km/h 72% 0.0 mm 0 W/m2
02:14 14 °C 9 °C 1005.7 hPa WNW 2 km/h 5 km/h 72% 0.0 mm 0 W/m2
02:19 14 °C 9 °C 1005.7 hPa WNW 1 km/h 5 km/h 72% 0.0 mm 0 W/m2
02:24 14 °C 9 °C 1005.5 hPa NW 3 km/h 8 km/h 72% 0.0 mm 0 W/m2
02:29 14 °C 9 °C 1005.5 hPa NW 3 km/h 8 km/h 72% 0.0 mm 0 W/m2
02:34 14 °C 9 °C 1005.5 hPa NW 3 km/h 6 km/h 73% 0.0 mm 0 W/m2
02:39 14 °C 9 °C 1005.5 hPa NW 2 km/h 6 km/h 74% 0.0 mm 0 W/m2
02:44 14 °C 9 °C 1005.6 hPa NW 3 km/h 6 km/h 73% 0.0 mm 0 W/m2
02:49 14 °C 9 °C 1005.6 hPa NW 4 km/h 8 km/h 73% 0.0 mm 0 W/m2
02:54 14 °C 9 °C 1005.6 hPa NW 2 km/h 6 km/h 73% 0.0 mm 0 W/m2
02:59 14 °C 9 °C 1005.6 hPa NW 4 km/h 8 km/h 73% 0.0 mm 0 W/m2
03:04 14 °C 9 °C 1005.6 hPa NW 4 km/h 8 km/h 74% 0.0 mm 0 W/m2
03:09 14 °C 9 °C 1005.5 hPa NW 3 km/h 8 km/h 74% 0.0 mm 0 W/m2
03:14 14 °C 9 °C 1005.5 hPa NW 3 km/h 8 km/h 74% 0.0 mm 0 W/m2
03:19 14 °C 9 °C 1005.5 hPa NW 3 km/h 6 km/h 74% 0.0 mm 0 W/m2
03:24 14 °C 9 °C 1005.5 hPa NW 2 km/h 5 km/h 74% 0.0 mm 0 W/m2
03:29 14 °C 9 °C 1005.5 hPa NW 3 km/h 8 km/h 75% 0.0 mm 0 W/m2
03:34 14 °C 9 °C 1005.5 hPa WNW 2 km/h 8 km/h 76% 0.0 mm 0 W/m2
03:39 14 °C 9 °C 1005.5 hPa WNW 1 km/h 5 km/h 76% 0.0 mm 0 W/m2
03:44 14 °C 9 °C 1005.6 hPa WNW 2 km/h 6 km/h 77% 0.0 mm 0 W/m2
03:49 13 °C 9 °C 1005.6 hPa WNW 2 km/h 5 km/h 77% 0.0 mm 0 W/m2
03:54 13 °C 9 °C 1005.5 hPa WNW 2 km/h 6 km/h 78% 0.0 mm 0 W/m2
03:59 13 °C 9 °C 1005.6 hPa WNW 1 km/h 5 km/h 78% 0.0 mm 0 W/m2
04:04 13 °C 9 °C 1005.6 hPa WNW 3 km/h 6 km/h 78% 0.0 mm 0 W/m2
04:09 13 °C 10 °C 1005.7 hPa WNW 2 km/h 5 km/h 78% 0.0 mm 0 W/m2
04:14 13 °C 10 °C 1005.7 hPa WNW 2 km/h 6 km/h 79% 0.0 mm 0 W/m2
04:19 13 °C 10 °C 1005.7 hPa WNW 2 km/h 6 km/h 78% 0.0 mm 0 W/m2
04:24 13 °C 10 °C 1005.7 hPa WNW 2 km/h 6 km/h 79% 0.0 mm 0 W/m2
04:29 13 °C 10 °C 1005.7 hPa WNW 4 km/h 8 km/h 79% 0.0 mm 0 W/m2
04:34 13 °C 10 °C 1005.7 hPa WNW 2 km/h 8 km/h 79% 0.0 mm 0 W/m2
04:39 13 °C 10 °C 1005.8 hPa Calm   3 km/h 79% 0.0 mm 0 W/m2
04:44 13 °C 10 °C 1005.8 hPa WNW 1 km/h 5 km/h 79% 0.0 mm 0 W/m2
04:49 13 °C 10 °C 1005.8 hPa Calm   5 km/h 80% 0.0 mm 0 W/m2
04:54 13 °C 9 °C 1005.8 hPa WNW 1 km/h 5 km/h 80% 0.0 mm 0 W/m2
04:59 13 °C 9 °C 1005.9 hPa Calm   3 km/h 80% 0.0 mm 0 W/m2
05:04 13 °C 9 °C 1006.0 hPa Calm     81% 0.0 mm 0 W/m2
05:09 13 °C 9 °C 1006.0 hPa Calm     81% 0.0 mm 0 W/m2
05:14 12 °C 9 °C 1006.1 hPa Calm     81% 0.0 mm 0 W/m2
05:19 12 °C 9 °C 1006.1 hPa Calm     82% 0.0 mm 0 W/m2
05:24 12 °C 9 °C 1006.1 hPa Calm     82% 0.0 mm 0 W/m2
05:29 12 °C 9 °C 1006.1 hPa Calm     82% 0.0 mm 0 W/m2
05:34 12 °C 9 °C 1006.2 hPa Calm     82% 0.0 mm 0 W/m2
05:39 12 °C 9 °C 1006.3 hPa Calm     83% 0.0 mm 0 W/m2
05:44 12 °C 9 °C 1006.3 hPa Calm     84% 0.0 mm 5 W/m2
05:49 11 °C 9 °C 1006.3 hPa Calm     84% 0.0 mm 7 W/m2
05:54 11 °C 9 °C 1006.3 hPa Calm     85% 0.0 mm 7 W/m2
05:59 11 °C 9 °C 1006.4 hPa Calm     85% 0.0 mm 7 W/m2
06:04 11 °C 9 °C 1006.4 hPa Calm     85% 0.0 mm 9 W/m2
06:09 11 °C 9 °C 1006.4 hPa Calm     86% 0.0 mm 11 W/m2
06:14 11 °C 9 °C 1006.5 hPa Calm     87% 0.0 mm 12 W/m2
06:19 11 °C 9 °C 1006.5 hPa Calm     87% 0.0 mm 18 W/m2
06:24 11 °C 9 °C 1006.6 hPa Calm     87% 0.0 mm 19 W/m2
06:29 11 °C 9 °C 1006.5 hPa Calm     87% 0.0 mm 62 W/m2
06:34 11 °C 9 °C 1006.5 hPa Calm     87% 0.0 mm 79 W/m2
06:39 11 °C 9 °C 1006.5 hPa Calm     88% 0.0 mm 93 W/m2
06:44 12 °C 9 °C 1006.5 hPa Calm     88% 0.0 mm 105 W/m2
06:49 12 °C 10 °C 1006.4 hPa Calm     88% 0.0 mm 120 W/m2
06:54 12 °C 10 °C 1006.5 hPa Calm     87% 0.0 mm 132 W/m2
06:59 13 °C 11 °C 1006.6 hPa Calm     86% 0.0 mm 149 W/m2
07:04 13 °C 11 °C 1006.7 hPa Calm     84% 0.0 mm 167 W/m2
07:09 13 °C 11 °C 1006.7 hPa Calm     84% 0.0 mm 190 W/m2
07:14 13 °C 11 °C 1006.8 hPa WNW 1 km/h 8 km/h 84% 0.0 mm 214 W/m2
07:19 13 °C 11 °C 1006.9 hPa WNW 2 km/h 8 km/h 84% 0.0 mm 221 W/m2
07:24 13 °C 11 °C 1007.0 hPa SW 4 km/h 8 km/h 84% 0.0 mm 123 W/m2
07:29 13 °C 11 °C 1007.0 hPa SW 4 km/h 10 km/h 84% 0.0 mm 111 W/m2
07:34 13 °C 11 °C 1007.1 hPa SW 5 km/h 8 km/h 84% 0.0 mm 125 W/m2
07:39 13 °C 11 °C 1007.1 hPa SW 4 km/h 8 km/h 84% 0.0 mm 137 W/m2
07:44 13 °C 11 °C 1007.2 hPa SW 4 km/h 8 km/h 85% 0.0 mm 127 W/m2
07:49 14 °C 11 °C 1007.4 hPa SW 7 km/h 13 km/h 84% 0.0 mm 120 W/m2
07:54 14 °C 11 °C 1007.4 hPa WSW 6 km/h 13 km/h 83% 0.0 mm 105 W/m2
07:59 13 °C 11 °C 1007.4 hPa WSW 6 km/h 11 km/h 83% 0.0 mm 76 W/m2
08:04 13 °C 11 °C 1007.4 hPa WSW 7 km/h 10 km/h 83% 0.0 mm 88 W/m2
08:09 13 °C 11 °C 1007.5 hPa WSW 6 km/h 11 km/h 83% 0.0 mm 352 W/m2
08:14 13 °C 11 °C 1007.5 hPa WSW 6 km/h 11 km/h 84% 0.0 mm 383 W/m2
08:19 14 °C 11 °C 1007.8 hPa WSW 7 km/h 11 km/h 84% 0.0 mm 489 W/m2
08:24 14 °C 11 °C 1007.8 hPa SW 7 km/h 11 km/h 82% 0.0 mm 534 W/m2
08:29 14 °C 11 °C 1007.8 hPa SSW 6 km/h 13 km/h 81% 0.0 mm 526 W/m2
08:34 14 °C 11 °C 1007.8 hPa SW 6 km/h 13 km/h 80% 0.0 mm 410 W/m2
08:39 15 °C 11 °C 1007.7 hPa WSW 5 km/h 11 km/h 78% 0.0 mm 434 W/m2
08:44 15 °C 11 °C 1007.6 hPa WSW 5 km/h 13 km/h 77% 0.0 mm 431 W/m2
08:49 16 °C 11 °C 1007.6 hPa SW 8 km/h 19 km/h 76% 0.0 mm 432 W/m2
08:54 16 °C 12 °C 1007.7 hPa SW 7 km/h 16 km/h 76% 0.0 mm 436 W/m2
08:59 16 °C 12 °C 1007.7 hPa SW 8 km/h 16 km/h 76% 0.0 mm 464 W/m2
09:04 16 °C 12 °C 1007.8 hPa WSW 10 km/h 16 km/h 76% 0.0 mm 520 W/m2
09:09 16 °C 12 °C 1007.8 hPa WSW 9 km/h 19 km/h 75% 0.0 mm 192 W/m2
09:14 16 °C 12 °C 1007.8 hPa WSW 10 km/h 18 km/h 76% 0.0 mm 566 W/m2
09:19 16 °C 12 °C 1007.6 hPa WSW 8 km/h 13 km/h 76% 0.0 mm 592 W/m2
09:24 17 °C 12 °C 1007.6 hPa WSW 8 km/h 14 km/h 75% 0.0 mm 631 W/m2
09:29 17 °C 12 °C 1007.6 hPa WSW 8 km/h 18 km/h 75% 0.0 mm 606 W/m2
09:34 17 °C 12 °C 1007.6 hPa SW 8 km/h 16 km/h 73% 0.0 mm 601 W/m2
09:39 17 °C 12 °C 1007.6 hPa WSW 9 km/h 18 km/h 74% 0.0 mm 561 W/m2
09:44 17 °C 12 °C 1007.6 hPa SW 9 km/h 18 km/h 74% 0.0 mm 580 W/m2
09:49 17 °C 12 °C 1007.6 hPa WSW 10 km/h 18 km/h 73% 0.0 mm 631 W/m2
09:54 17 °C 12 °C 1007.6 hPa WSW 12 km/h 26 km/h 72% 0.0 mm 649 W/m2
09:59 17 °C 12 °C 1007.6 hPa WSW 10 km/h 26 km/h 72% 0.0 mm 659 W/m2
10:04 17 °C 12 °C 1007.6 hPa WSW 9 km/h 18 km/h 72% 0.0 mm 707 W/m2
10:09 17 °C 12 °C 1007.5 hPa SW 9 km/h 14 km/h 72% 0.0 mm 772 W/m2
10:14 17 °C 12 °C 1007.6 hPa WSW 9 km/h 14 km/h 73% 0.0 mm 775 W/m2
10:19 18 °C 12 °C 1007.6 hPa WSW 10 km/h 16 km/h 69% 0.0 mm 680 W/m2
10:24 18 °C 12 °C 1007.7 hPa West 7 km/h 16 km/h 67% 0.0 mm 752 W/m2
10:29 18 °C 12 °C 1007.8 hPa West 8 km/h 14 km/h 67% 0.0 mm 780 W/m2
10:34 18 °C 12 °C 1007.8 hPa WSW 10 km/h 18 km/h 67% 0.0 mm 860 W/m2
10:39 18 °C 11 °C 1007.9 hPa WSW 11 km/h 19 km/h 65% 0.0 mm 793 W/m2
10:44 17 °C 11 °C 1007.9 hPa WSW 8 km/h 16 km/h 67% 0.0 mm 689 W/m2
10:49 17 °C 12 °C 1007.9 hPa WSW 8 km/h 14 km/h 69% 0.0 mm 693 W/m2
10:54 17 °C 12 °C 1007.9 hPa WSW 7 km/h 13 km/h 67% 0.0 mm 744 W/m2
10:59 18 °C 12 °C 1007.9 hPa WSW 9 km/h 16 km/h 67% 0.0 mm 837 W/m2
11:04 18 °C 12 °C 1007.9 hPa SSW 7 km/h 16 km/h 64% 0.0 mm 860 W/m2
11:09 18 °C 12 °C 1007.8 hPa SW 8 km/h 18 km/h 63% 0.0 mm 886 W/m2
11:14 19 °C 12 °C 1007.9 hPa WSW 10 km/h 24 km/h 62% 0.0 mm 1009 W/m2
11:19 19 °C 12 °C 1007.9 hPa SW 11 km/h 24 km/h 61% 0.0 mm 1009 W/m2
11:24 19 °C 11 °C 1008.1 hPa WSW 11 km/h 21 km/h 60% 0.0 mm 793 W/m2
11:29 19 °C 11 °C 1008.0 hPa WSW 10 km/h 21 km/h 61% 0.0 mm 777 W/m2
11:34 19 °C 11 °C 1008.0 hPa WSW 10 km/h 19 km/h 61% 0.0 mm 960 W/m2
11:39 19 °C 11 °C 1008.0 hPa WSW 8 km/h 19 km/h 60% 0.0 mm 891 W/m2
11:44 19 °C 11 °C 1008.0 hPa WSW 10 km/h 24 km/h 60% 0.0 mm 295 W/m2
11:49 18 °C 11 °C 1008.0 hPa West 9 km/h 16 km/h 60% 0.0 mm 295 W/m2
11:54 18 °C 11 °C 1008.0 hPa West 9 km/h 18 km/h 60% 0.0 mm 311 W/m2
11:59 18 °C 11 °C 1008.0 hPa WSW 11 km/h 21 km/h 60% 0.0 mm 863 W/m2
12:04 19 °C 11 °C 1008.0 hPa West 11 km/h 21 km/h 60% 0.0 mm 863 W/m2
12:09 19 °C 11 °C 1007.9 hPa SW 8 km/h 14 km/h 59% 0.0 mm 851 W/m2
12:14 19 °C 11 °C 1007.9 hPa WSW 9 km/h 14 km/h 57% 0.0 mm 336 W/m2
12:19 19 °C 11 °C 1008.0 hPa SW 8 km/h 18 km/h 56% 0.0 mm 308 W/m2
12:24 19 °C 10 °C 1008.0 hPa SW 11 km/h 18 km/h 55% 0.0 mm 378 W/m2
12:29 19 °C 11 °C 1008.1 hPa WSW 13 km/h 19 km/h 56% 0.0 mm 942 W/m2
12:34 19 °C 10 °C 1008.1 hPa West 14 km/h 26 km/h 54% 0.0 mm 932 W/m2
12:39 19 °C 10 °C 1008.1 hPa WSW 13 km/h 24 km/h 54% 0.0 mm 954 W/m2
12:44 20 °C 11 °C 1008.2 hPa SW 11 km/h 23 km/h 54% 0.0 mm 1014 W/m2
12:49 20 °C 10 °C 1008.2 hPa WSW 11 km/h 21 km/h 53% 0.0 mm 352 W/m2
12:54 20 °C 10 °C 1008.2 hPa WSW 11 km/h 19 km/h 54% 0.0 mm 385 W/m2
12:59 20 °C 10 °C 1008.3 hPa WSW 12 km/h 21 km/h 53% 0.0 mm 1056 W/m2
13:04 20 °C 11 °C 1008.3 hPa WSW 11 km/h 27 km/h 53% 0.0 mm 1056 W/m2
13:09 20 °C 11 °C 1008.3 hPa SW 10 km/h 27 km/h 53% 0.0 mm 844 W/m2
13:14 20 °C 10 °C 1008.3 hPa WSW 12 km/h 24 km/h 53% 0.0 mm 327 W/m2
13:19 20 °C 11 °C 1008.3 hPa WSW 12 km/h 24 km/h 53% 0.0 mm 401 W/m2
13:24 20 °C 11 °C 1008.4 hPa SW 8 km/h 16 km/h 54% 0.0 mm 316 W/m2
13:29 20 °C 11 °C 1008.5 hPa WSW 10 km/h 19 km/h 54% 0.0 mm 253 W/m2
13:34 19 °C 10 °C 1008.5 hPa WSW 11 km/h 19 km/h 54% 0.0 mm 193 W/m2
13:39 19 °C 10 °C 1008.5 hPa WSW 9 km/h 16 km/h 55% 0.0 mm 315 W/m2
13:44 19 °C 10 °C 1008.5 hPa West 9 km/h 16 km/h 55% 0.0 mm 315 W/m2
13:49 19 °C 10 °C 1008.5 hPa WSW 12 km/h 21 km/h 53% 0.0 mm 288 W/m2
13:54 20 °C 10 °C 1008.5 hPa WSW 11 km/h 24 km/h 53% 0.0 mm 309 W/m2
13:59 20 °C 10 °C 1008.5 hPa WSW 11 km/h 23 km/h 52% 0.0 mm 396 W/m2
14:04 20 °C 10 °C 1008.5 hPa WSW 15 km/h 27 km/h 51% 0.0 mm 538 W/m2
14:09 21 °C 9 °C 1008.6 hPa WSW 16 km/h 27 km/h 49% 0.0 mm 998 W/m2
14:14 21 °C 9 °C 1008.7 hPa WSW 13 km/h 21 km/h 49% 0.0 mm 606 W/m2
14:19 21 °C 9 °C 1008.7 hPa WSW 17 km/h 27 km/h 50% 0.0 mm 606 W/m2
14:24 21 °C 10 °C 1008.8 hPa WSW 12 km/h 23 km/h 51% 0.0 mm 436 W/m2
14:29 20 °C 10 °C 1008.8 hPa WSW 13 km/h 24 km/h 51% 0.0 mm 350 W/m2
14:34 20 °C 10 °C 1008.8 hPa SW 16 km/h 29 km/h 52% 0.0 mm 415 W/m2
14:39 20 °C 10 °C 1008.8 hPa WSW 14 km/h 23 km/h 52% 0.0 mm 388 W/m2
14:44 21 °C 11 °C 1008.8 hPa WSW 13 km/h 23 km/h 53% 0.0 mm 1032 W/m2
14:49 21 °C 11 °C 1008.8 hPa SW 10 km/h 21 km/h 52% 0.0 mm 411 W/m2
14:54 21 °C 11 °C 1008.7 hPa WSW 11 km/h 21 km/h 52% 0.0 mm 413 W/m2
14:59 21 °C 11 °C 1008.9 hPa WSW 13 km/h 21 km/h 52% 0.0 mm 299 W/m2
15:04 20 °C 11 °C 1008.8 hPa WSW 13 km/h 24 km/h 53% 0.0 mm 185 W/m2
15:09 20 °C 10 °C 1008.9 hPa WSW 13 km/h 24 km/h 54% 0.0 mm 135 W/m2
15:14 19 °C 11 °C 1009.0 hPa WSW 11 km/h 19 km/h 55% 0.0 mm 130 W/m2
15:19 19 °C 11 °C 1009.1 hPa WSW 10 km/h 18 km/h 56% 0.0 mm 146 W/m2
15:24 19 °C 11 °C 1009.2 hPa WSW 10 km/h 21 km/h 57% 0.0 mm 202 W/m2
15:29 19 °C 11 °C 1009.3 hPa WSW 11 km/h 23 km/h 58% 0.0 mm 192 W/m2
15:34 19 °C 11 °C 1009.4 hPa WSW 15 km/h 26 km/h 58% 0.0 mm 111 W/m2
15:39 18 °C 11 °C 1009.5 hPa West 14 km/h 29 km/h 62% 0.0 mm 156 W/m2
15:44 18 °C 12 °C 1009.5 hPa West 9 km/h 18 km/h 66% 0.0 mm 227 W/m2
15:49 18 °C 12 °C 1009.5 hPa WNW 11 km/h 18 km/h 68% 0.0 mm 315 W/m2
15:54 18 °C 12 °C 1009.5 hPa WNW 9 km/h 18 km/h 67% 0.0 mm 418 W/m2
15:59 18 °C 12 °C 1009.5 hPa WNW 10 km/h 21 km/h 66% 0.0 mm 780 W/m2
16:04 19 °C 12 °C 1009.4 hPa NW 8 km/h 21 km/h 65% 0.0 mm 647 W/m2
16:09 19 °C 12 °C 1009.3 hPa WNW 10 km/h 16 km/h 64% 0.0 mm 622 W/m2
16:14 19 °C 12 °C 1009.5 hPa West 11 km/h 16 km/h 64% 0.0 mm 654 W/m2
16:19 19 °C 12 °C 1009.5 hPa West 12 km/h 23 km/h 62% 0.0 mm 636 W/m2
16:24 20 °C 12 °C 1009.4 hPa West 12 km/h 23 km/h 60% 0.0 mm 587 W/m2
16:29 20 °C 12 °C 1009.4 hPa West 13 km/h 21 km/h 60% 0.0 mm 668 W/m2
16:34 20 °C 12 °C 1009.5 hPa West 12 km/h 19 km/h 58% 0.0 mm 673 W/m2
16:39 19 °C 11 °C 1009.5 hPa West 10 km/h 18 km/h 59% 0.0 mm 348 W/m2
16:44 19 °C 12 °C 1009.5 hPa WSW 9 km/h 16 km/h 60% 0.0 mm 573 W/m2
16:49 19 °C 11 °C 1009.5 hPa WNW 7 km/h 13 km/h 59% 0.0 mm 257 W/m2
16:54 19 °C 11 °C 1009.5 hPa West 7 km/h 19 km/h 59% 0.0 mm 113 W/m2
16:59 19 °C 11 °C 1009.5 hPa West 9 km/h 21 km/h 60% 0.0 mm 95 W/m2
17:04 19 °C 11 °C 1009.5 hPa West 9 km/h 21 km/h 61% 0.0 mm 76 W/m2
17:09 18 °C 11 °C 1009.6 hPa West 9 km/h 16 km/h 62% 0.0 mm 114 W/m2
17:14 18 °C 11 °C 1009.6 hPa West 12 km/h 19 km/h 62% 0.0 mm 114 W/m2
17:19 18 °C 11 °C 1009.6 hPa West 10 km/h 18 km/h 64% 0.0 mm 97 W/m2
17:24 18 °C 12 °C 1009.7 hPa WSW 10 km/h 19 km/h 66% 0.0 mm 104 W/m2
17:29 18 °C 12 °C 1009.6 hPa West 8 km/h 19 km/h 67% 0.0 mm 113 W/m2
17:34 18 °C 12 °C 1009.6 hPa WSW 7 km/h 14 km/h 68% 0.0 mm 158 W/m2
17:39 18 °C 12 °C 1009.7 hPa WSW 8 km/h 14 km/h 68% 0.0 mm 155 W/m2
17:44 18 °C 12 °C 1009.7 hPa SW 8 km/h 13 km/h 67% 0.0 mm 155 W/m2
17:49 18 °C 12 °C 1009.8 hPa SW 6 km/h 11 km/h 67% 0.0 mm 192 W/m2
17:54 18 °C 12 °C 1009.7 hPa West 6 km/h 11 km/h 67% 0.0 mm 250 W/m2
17:59 18 °C 12 °C 1009.7 hPa WSW 5 km/h 11 km/h 66% 0.0 mm 250 W/m2
18:04 18 °C 12 °C 1009.7 hPa WSW 7 km/h 11 km/h 65% 0.0 mm 471 W/m2
18:09 19 °C 12 °C 1009.8 hPa WSW 7 km/h 13 km/h 64% 0.0 mm 457 W/m2
18:14 19 °C 12 °C 1009.8 hPa WSW 5 km/h 14 km/h 61% 0.0 mm 418 W/m2
18:19 19 °C 12 °C 1009.8 hPa WSW 6 km/h 14 km/h 61% 0.0 mm 278 W/m2
18:24 19 °C 12 °C 1009.7 hPa WSW 4 km/h 11 km/h 60% 0.0 mm 278 W/m2
18:29 19 °C 12 °C 1009.7 hPa SW 6 km/h 14 km/h 60% 0.0 mm 316 W/m2
18:34 19 °C 12 °C 1009.8 hPa SSW 5 km/h 10 km/h 61% 0.0 mm 316 W/m2
18:39 19 °C 12 °C 1009.8 hPa SW 6 km/h 13 km/h 61% 0.0 mm 93 W/m2
18:44 19 °C 12 °C 1009.9 hPa WSW 6 km/h 11 km/h 62% 0.0 mm 185 W/m2
18:49 19 °C 12 °C 1009.9 hPa SW 5 km/h 11 km/h 63% 0.0 mm 118 W/m2
18:54 19 °C 12 °C 1009.9 hPa SW 7 km/h 21 km/h 63% 0.0 mm 123 W/m2
18:59 18 °C 11 °C 1009.9 hPa SW 9 km/h 14 km/h 62% 0.0 mm 97 W/m2
19:04 18 °C 11 °C 1010.0 hPa WSW 8 km/h 14 km/h 62% 0.0 mm 267 W/m2
19:09 19 °C 11 °C 1010.0 hPa WSW 8 km/h 16 km/h 61% 0.0 mm 239 W/m2
19:14 19 °C 11 °C 1009.9 hPa WSW 8 km/h 16 km/h 61% 0.0 mm 128 W/m2
19:19 19 °C 11 °C 1009.9 hPa WSW 6 km/h 16 km/h 60% 0.0 mm 107 W/m2
19:24 19 °C 11 °C 1009.9 hPa West 5 km/h 11 km/h 60% 0.0 mm 105 W/m2
19:29 19 °C 12 °C 1009.9 hPa West 3 km/h 8 km/h 65% 0.0 mm 105 W/m2
19:34 18 °C 12 °C 1009.9 hPa WNW 4 km/h 10 km/h 67% 0.0 mm 65 W/m2
19:39 18 °C 12 °C 1010.0 hPa NW 7 km/h 14 km/h 68% 0.0 mm 44 W/m2
19:44 18 °C 12 °C 1010.0 hPa NW 4 km/h 13 km/h 68% 0.0 mm 46 W/m2
19:49 17 °C 12 °C 1010.2 hPa NW 3 km/h 10 km/h 69% 0.0 mm 33 W/m2
19:54 17 °C 12 °C 1010.2 hPa NW 4 km/h 8 km/h 70% 0.0 mm 49 W/m2
19:59 17 °C 12 °C 1010.2 hPa NW 5 km/h 11 km/h 70% 0.0 mm 49 W/m2
20:04 17 °C 12 °C 1010.5 hPa WNW 4 km/h 11 km/h 70% 0.0 mm 67 W/m2
20:09 17 °C 12 °C 1010.6 hPa WNW 3 km/h 10 km/h 70% 0.0 mm 67 W/m2
20:14 17 °C 12 °C 1010.8 hPa WNW 2 km/h 8 km/h 70% 0.0 mm 30 W/m2
20:19 17 °C 12 °C 1010.8 hPa WNW 1 km/h 6 km/h 71% 0.0 mm 16 W/m2
20:24 17 °C 12 °C 1010.8 hPa WNW 2 km/h 8 km/h 71% 0.0 mm 11 W/m2
20:29 17 °C 12 °C 1010.8 hPa WNW 2 km/h 5 km/h 72% 0.0 mm 7 W/m2
20:34 17 °C 11 °C 1010.8 hPa WNW 2 km/h 6 km/h 72% 0.0 mm 5 W/m2
20:39 16 °C 11 °C 1010.9 hPa WNW 2 km/h 6 km/h 72% 0.0 mm 5 W/m2
20:44 16 °C 12 °C 1010.9 hPa WNW 1 km/h 6 km/h 73% 0.0 mm 5 W/m2
20:49 16 °C 12 °C 1010.9 hPa Calm     74% 0.0 mm 0 W/m2
20:54 16 °C 12 °C 1011.0 hPa Calm     75% 0.0 mm 0 W/m2
20:59 16 °C 11 °C 1011.0 hPa Calm     75% 0.0 mm 0 W/m2
21:04 16 °C 11 °C 1011.1 hPa Calm     75% 0.0 mm 0 W/m2
21:09 16 °C 11 °C 1011.1 hPa Calm     75% 0.0 mm 0 W/m2
21:14 16 °C 11 °C 1011.1 hPa Calm     76% 0.0 mm 0 W/m2
21:19 16 °C 11 °C 1011.2 hPa Calm     76% 0.0 mm 0 W/m2
21:24 15 °C 11 °C 1011.3 hPa Calm     76% 0.0 mm 0 W/m2
21:29 15 °C 11 °C 1011.2 hPa Calm     77% 0.0 mm 0 W/m2
21:34 15 °C 11 °C 1011.2 hPa Calm     77% 0.0 mm 0 W/m2
21:39 15 °C 11 °C 1011.3 hPa Calm     78% 0.0 mm 0 W/m2
21:44 14 °C 11 °C 1011.3 hPa Calm     78% 0.0 mm 0 W/m2
21:49 14 °C 11 °C 1011.4 hPa Calm     78% 0.0 mm 0 W/m2
21:54 14 °C 11 °C 1011.5 hPa Calm     79% 0.0 mm 0 W/m2
21:59 14 °C 11 °C 1011.5 hPa Calm     79% 0.0 mm 0 W/m2
22:04 14 °C 11 °C 1011.5 hPa Calm     80% 0.0 mm 0 W/m2
22:09 14 °C 11 °C 1011.5 hPa Calm     80% 0.0 mm 0 W/m2
22:14 14 °C 11 °C 1011.6 hPa Calm     80% 0.0 mm 0 W/m2
22:19 14 °C 11 °C 1011.6 hPa Calm     81% 0.0 mm 0 W/m2
22:24 14 °C 11 °C 1011.7 hPa Calm     81% 0.0 mm 0 W/m2
22:29 14 °C 11 °C 1011.7 hPa Calm     81% 0.0 mm 0 W/m2
22:34 14 °C 11 °C 1011.6 hPa Calm     81% 0.0 mm 0 W/m2
22:39 14 °C 11 °C 1011.6 hPa Calm     81% 0.0 mm 0 W/m2
22:44 14 °C 11 °C 1011.7 hPa Calm     81% 0.0 mm 0 W/m2
22:49 14 °C 11 °C 1011.7 hPa Calm     81% 0.0 mm 0 W/m2
22:54 14 °C 11 °C 1011.6 hPa Calm     82% 0.0 mm 0 W/m2
22:59 14 °C 11 °C 1011.6 hPa Calm     82% 0.0 mm 0 W/m2
23:04 14 °C 11 °C 1011.6 hPa Calm     83% 0.0 mm 0 W/m2
23:09 13 °C 11 °C 1011.8 hPa Calm     83% 0.0 mm 0 W/m2
23:14 13 °C 11 °C 1011.9 hPa Calm     83% 0.0 mm 0 W/m2
23:19 13 °C 11 °C 1011.9 hPa Calm     83% 0.0 mm 0 W/m2
23:24 13 °C 11 °C 1011.9 hPa Calm     84% 0.0 mm 0 W/m2
23:29 13 °C 11 °C 1011.9 hPa Calm     84% 0.0 mm 0 W/m2
23:34 13 °C 11 °C 1011.9 hPa Calm     85% 0.0 mm 0 W/m2
23:39 13 °C 11 °C 1011.9 hPa Calm     85% 0.0 mm 0 W/m2
23:44 13 °C 11 °C 1011.9 hPa Calm     85% 0.0 mm 0 W/m2
23:49 13 °C 11 °C 1011.9 hPa Calm     85% 0.0 mm 0 W/m2
23:54 13 °C 11 °C 1012.0 hPa Calm     86% 0.0 mm 0 W/m2
23:59 13 °C 11 °C 1012.0 hPa Calm     86% 0.0 mm 0 W/m2
Compliments of Weather Underground - 4.25 mb